Time;durP1;ratioP1;P1;durP2;ratioP2;P2;SDS_P1;SDS_P2;PMS_P1;PMS_P2;Temp;Humidity;BMP_temperature;BMP_pressure;BME280_temperature;BME280_humidity;BME280_pressure;Samples;Min_cycle;Max_cycle;Signal;HPM_P1;HPM_P2
2022/06/11 00:00:39;;;;;;;6.43;2.13;;;18.10;99.90;;;;;;4234046;28;20051;-83
2022/06/11 00:02:40;;;;;;;8.95;2.30;;;18.10;99.90;;;;;;4234118;28;20475;-83
2022/06/11 00:04:42;;;;;;;6.40;1.95;;;18.00;99.90;;;;;;4234842;28;20167;-82
2022/06/11 00:06:47;;;;;;;3.80;1.60;;;18.00;99.90;;;;;;4215652;28;20101;-83
2022/06/11 00:08:48;;;;;;;6.97;1.70;;;17.90;99.90;;;;;;4234162;28;20161;-83
2022/06/11 00:10:49;;;;;;;5.88;1.77;;;17.90;99.90;;;;;;4234338;28;20050;-83
2022/06/11 00:12:50;;;;;;;5.00;2.33;;;17.90;99.90;;;;;;4234337;28;20118;-83
2022/06/11 00:14:50;;;;;;;2.85;1.40;;;17.80;99.90;;;;;;4234543;28;20048;-83
2022/06/11 00:16:52;;;;;;;3.60;2.03;;;17.80;99.90;;;;;;4234505;28;20118;-83
2022/06/11 00:18:55;;;;;;;3.92;1.60;;;17.70;99.90;;;;;;4233529;28;20046;-83
2022/06/11 00:20:56;;;;;;;6.93;2.00;;;17.70;99.90;;;;;;4233667;28;20050;-83
2022/06/11 00:22:57;;;;;;;5.00;1.92;;;17.60;99.90;;;;;;4234260;28;20040;-83
2022/06/11 00:24:59;;;;;;;3.53;1.83;;;17.60;99.90;;;;;;4234512;28;20161;-83
2022/06/11 00:27:01;;;;;;;4.10;1.70;;;17.60;99.90;;;;;;4235027;28;20407;-83
2022/06/11 00:29:04;;;;;;;5.07;1.92;;;17.50;99.90;;;;;;4216664;28;20036;-83
2022/06/11 00:31:06;;;;;;;3.80;1.95;;;17.50;99.90;;;;;;4234040;28;20043;-83
2022/06/11 00:33:07;;;;;;;5.88;1.83;;;17.50;99.90;;;;;;4234238;28;20511;-83
2022/06/11 00:35:09;;;;;;;7.63;1.88;;;17.40;99.90;;;;;;4234383;28;20039;-83
2022/06/11 00:37:11;;;;;;;5.10;1.85;;;17.30;99.90;;;;;;4234578;28;20075;-83
2022/06/11 00:39:15;;;;;;;6.00;1.98;;;17.30;99.90;;;;;;4217941;28;20069;-83
2022/06/11 00:41:20;;;;;;;3.70;2.00;;;17.30;99.90;;;;;;4218780;28;20122;-83
2022/06/11 00:43:25;;;;;;;5.82;1.95;;;17.30;99.90;;;;;;4218451;28;20040;-83
2022/06/11 00:45:31;;;;;;;7.18;2.00;;;17.20;99.90;;;;;;4236265;28;20085;-83
2022/06/11 00:47:33;;;;;;;5.25;2.50;;;17.20;99.90;;;;;;4236289;28;20039;-83
2022/06/11 00:49:52;;;;;;;6.35;1.90;;;17.10;99.90;;;;;;4236725;28;20444;-83
2022/06/11 00:52:19;;;;;;;6.65;2.17;;;17.10;99.90;;;;;;4236937;28;20047;-83
2022/06/11 00:54:25;;;;;;;6.32;2.30;;;17.10;99.90;;;;;;4221113;28;20077;-83
2022/06/11 00:56:30;;;;;;;5.05;2.13;;;17.00;99.90;;;;;;4215121;28;20393;-83
2022/06/11 00:58:38;;;;;;;6.15;2.25;;;17.00;99.90;;;;;;4233930;28;20058;-83
2022/06/11 01:00:42;;;;;;;3.33;1.90;;;16.90;99.90;;;;;;4234088;28;20369;-83
2022/06/11 01:02:46;;;;;;;5.30;2.60;;;16.90;99.90;;;;;;4234085;28;20047;-83
2022/06/11 01:05:02;;;;;;;4.72;2.03;;;16.70;99.90;;;;;;4214654;28;20047;-83
2022/06/11 01:07:16;;;;;;;7.47;2.47;;;16.80;99.90;;;;;;4214754;28;20179;-83
2022/06/11 01:09:29;;;;;;;11.75;4.30;;;16.80;99.90;;;;;;4233794;28;20104;-83
2022/06/11 01:11:56;;;;;;;13.70;5.00;;;16.70;99.90;;;;;;4233642;28;20145;-83
2022/06/11 01:14:34;;;;;;;10.10;4.32;;;16.70;99.90;;;;;;4233391;28;20059;-83
2022/06/11 01:16:47;;;;;;;9.23;3.78;;;16.70;99.90;;;;;;4233820;28;20114;-83
2022/06/11 01:18:53;;;;;;;7.35;3.30;;;16.60;99.90;;;;;;4232749;28;20087;-83
2022/06/11 01:21:15;;;;;;;5.93;3.08;;;16.60;99.90;;;;;;4231704;28;20055;-83
2022/06/11 01:23:37;;;;;;;8.32;3.00;;;16.60;99.90;;;;;;4233193;28;20043;-83
2022/06/11 01:26:15;;;;;;;8.10;3.08;;;16.50;99.90;;;;;;4232829;28;20051;-83
2022/06/11 01:28:43;;;;;;;6.07;2.93;;;16.50;99.90;;;;;;4236082;27;20126;-83
2022/06/11 01:31:01;;;;;;;7.55;1.88;;;16.40;99.90;;;;;;4249967;27;20050;-83
2022/06/11 01:33:40;;;;;;;8.77;1.52;;;16.40;99.90;;;;;;4250858;27;20410;-83
2022/06/11 01:35:59;;;;;;;6.68;1.70;;;16.40;99.90;;;;;;4211271;27;20058;-83
2022/06/11 01:38:06;;;;;;;5.78;2.28;;;16.30;99.90;;;;;;4232343;28;20051;-83
2022/06/11 01:40:16;;;;;;;7.95;1.60;;;16.30;99.90;;;;;;4250575;27;20043;-83
2022/06/11 01:42:40;;;;;;;8.20;2.33;;;16.30;99.90;;;;;;4250831;27;20066;-82
2022/06/11 01:44:43;;;;;;;14.40;1.70;;;16.30;99.90;;;;;;4251918;27;20437;-83
2022/06/11 01:46:47;;;;;;;6.85;1.85;;;16.30;99.90;;;;;;4251979;27;20071;-83
2022/06/11 01:48:53;;;;;;;5.15;1.50;;;16.30;99.90;;;;;;4252156;27;20098;-83
2022/06/11 01:51:19;;;;;;;7.40;1.50;;;16.20;99.90;;;;;;4253365;27;20056;-82
2022/06/11 01:53:42;;;;;;;4.60;1.90;;;16.20;99.90;;;;;;4220715;28;20048;-83
2022/06/11 01:56:37;;;;;;;8.48;1.60;;;16.20;99.90;;;;;;4254469;27;20421;-82
2022/06/11 01:59:10;;;;;;;8.35;1.58;;;16.20;99.90;;;;;;4237575;27;20047;-83
2022/06/11 02:01:33;;;;;;;10.20;2.25;;;16.10;99.90;;;;;;4192412;28;20051;-83
2022/06/11 02:03:54;;;;;;;9.35;1.40;;;16.10;99.90;;;;;;4250156;27;20050;-83
2022/06/11 02:06:19;;;;;;;4.85;1.17;;;16.10;99.90;;;;;;4250243;27;20039;-83
2022/06/11 02:08:33;;;;;;;7.25;1.65;;;16.00;99.90;;;;;;4250290;27;20054;-83
2022/06/11 02:10:37;;;;;;;4.63;1.30;;;16.00;99.90;;;;;;4250268;27;20053;-83
2022/06/11 02:12:54;;;;;;;7.95;2.20;;;16.00;99.90;;;;;;4250466;27;20082;-83
2022/06/11 02:15:21;;;;;;;9.40;2.17;;;16.00;99.90;;;;;;4250941;27;20446;-83
2022/06/11 02:17:31;;;;;;;7.95;1.67;;;15.90;99.90;;;;;;4211206;27;20047;-83
2022/06/11 02:19:37;;;;;;;6.13;2.08;;;15.90;99.90;;;;;;4250605;27;20054;-83
2022/06/11 02:21:43;;;;;;;10.65;2.45;;;15.90;99.90;;;;;;4249979;27;20093;-83
2022/06/11 02:23:53;;;;;;;5.95;1.33;;;15.90;99.90;;;;;;4249801;27;20104;-83
2022/06/11 02:25:59;;;;;;;6.18;1.08;;;15.80;99.90;;;;;;4249976;27;20550;-83
2022/06/11 02:28:04;;;;;;;8.73;2.17;;;15.80;99.90;;;;;;4248556;27;20054;-83
2022/06/11 02:30:10;;;;;;;10.98;1.75;;;15.80;99.90;;;;;;4232701;28;20052;-83
2022/06/11 02:32:15;;;;;;;7.18;1.70;;;15.80;99.90;;;;;;4232863;28;20043;-83
2022/06/11 02:34:19;;;;;;;8.07;1.20;;;15.70;99.90;;;;;;4232639;28;20043;-83
2022/06/11 02:36:27;;;;;;;7.45;1.85;;;15.70;99.90;;;;;;4232667;28;20105;-83
2022/06/11 02:38:29;;;;;;;9.53;2.43;;;15.80;99.90;;;;;;4214328;28;20082;-83
2022/06/11 02:40:35;;;;;;;10.48;1.70;;;15.70;99.90;;;;;;4232092;28;20039;-83
2022/06/11 02:42:36;;;;;;;9.52;1.38;;;15.70;99.90;;;;;;4232395;28;20039;-84
2022/06/11 02:44:37;;;;;;;12.38;1.65;;;15.60;99.90;;;;;;4214197;28;20159;-84
2022/06/11 02:46:46;;;;;;;3.42;1.60;;;15.60;99.90;;;;;;4231694;28;20070;-84
2022/06/11 02:48:47;;;;;;;3.83;1.23;;;15.60;99.90;;;;;;4231898;28;20110;-84
2022/06/11 02:50:49;;;;;;;9.30;2.45;;;15.60;99.90;;;;;;4231687;28;20407;-83
2022/06/11 02:52:50;;;;;;;6.82;1.70;;;15.50;99.90;;;;;;4213721;28;20044;-83
2022/06/11 02:54:52;;;;;;;5.47;1.30;;;15.50;99.90;;;;;;4213765;28;20073;-84
2022/06/11 02:56:55;;;;;;;2.97;1.13;;;15.50;99.90;;;;;;4231197;28;20056;-84
2022/06/11 02:58:56;;;;;;;6.38;1.92;;;15.50;99.90;;;;;;4231243;28;20052;-83
2022/06/11 03:00:57;;;;;;;7.47;1.20;;;15.50;99.90;;;;;;4231945;28;20502;-83
2022/06/11 03:02:58;;;;;;;8.02;2.20;;;15.40;99.90;;;;;;4213286;28;20080;-83
2022/06/11 03:04:58;;;;;;;8.57;1.23;;;15.40;99.90;;;;;;4231560;28;20058;-83
2022/06/11 03:07:01;;;;;;;8.40;1.75;;;15.40;99.90;;;;;;4231195;28;20047;-83
2022/06/11 03:09:02;;;;;;;6.43;1.38;;;15.40;99.90;;;;;;4213483;28;20044;-83
2022/06/11 03:11:03;;;;;;;4.05;1.80;;;15.40;99.90;;;;;;4231466;28;20514;-84
2022/06/11 03:13:04;;;;;;;8.13;1.63;;;15.40;99.90;;;;;;4231125;28;20047;-84
2022/06/11 03:15:06;;;;;;;7.25;2.35;;;15.40;99.90;;;;;;4231290;28;20052;-84
2022/06/11 03:17:06;;;;;;;6.35;1.38;;;15.30;99.90;;;;;;4231466;28;20101;-85
2022/06/11 03:19:08;;;;;;;8.85;2.10;;;15.30;99.90;;;;;;4231457;28;20044;-83
2022/06/11 03:21:09;;;;;;;7.50;1.60;;;15.30;99.90;;;;;;4231418;28;20051;-83
2022/06/11 03:23:12;;;;;;;5.40;1.27;;;15.30;99.90;;;;;;4214265;28;20059;-82
2022/06/11 03:25:13;;;;;;;7.85;2.15;;;15.30;99.90;;;;;;4217323;28;20141;-83
2022/06/11 03:27:15;;;;;;;4.88;1.92;;;15.20;99.90;;;;;;4234392;28;20039;-83
2022/06/11 03:29:18;;;;;;;8.75;2.00;;;15.20;99.90;;;;;;4245283;27;20091;-84
2022/06/11 03:31:19;;;;;;;5.75;1.58;;;15.20;99.90;;;;;;4217916;28;20044;-83
2022/06/11 03:33:21;;;;;;;4.70;1.52;;;15.20;99.90;;;;;;4252244;27;20050;-84
2022/06/11 03:35:21;;;;;;;6.18;1.35;;;15.20;99.90;;;;;;4234558;28;20039;-84
2022/06/11 03:37:23;;;;;;;5.72;1.38;;;15.10;99.90;;;;;;4251746;27;20043;-84
2022/06/11 03:39:24;;;;;;;8.90;1.60;;;15.10;99.90;;;;;;4252209;27;20096;-84
2022/06/11 03:41:25;;;;;;;7.95;1.38;;;15.10;99.90;;;;;;4251783;27;20039;-84
2022/06/11 03:43:27;;;;;;;6.30;1.73;;;15.10;99.90;;;;;;4252038;27;20118;-84
2022/06/11 03:45:30;;;;;;;9.35;1.67;;;15.10;99.90;;;;;;4234095;28;20044;-84
2022/06/11 03:47:31;;;;;;;9.48;1.73;;;15.10;99.90;;;;;;4233958;28;20051;-84
2022/06/11 03:49:32;;;;;;;8.90;2.10;;;15.10;99.90;;;;;;4251889;27;20504;-84
2022/06/11 03:51:33;;;;;;;9.95;2.20;;;15.10;99.90;;;;;;4234090;28;20048;-83
2022/06/11 03:53:35;;;;;;;8.00;1.75;;;15.10;99.90;;;;;;4252412;27;20478;-83
2022/06/11 03:55:38;;;;;;;6.10;1.50;;;15.00;99.90;;;;;;4234018;28;20047;-84
2022/06/11 03:57:39;;;;;;;9.98;1.98;;;15.00;99.90;;;;;;4252057;27;20047;-84
2022/06/11 03:59:39;;;;;;;8.52;1.90;;;15.00;99.90;;;;;;4235453;28;20503;-84
2022/06/11 04:01:41;;;;;;;8.57;2.05;;;15.00;99.90;;;;;;4233504;28;20096;-84
2022/06/11 04:03:44;;;;;;;7.18;1.67;;;15.00;99.90;;;;;;4251418;27;20092;-84
2022/06/11 04:05:47;;;;;;;9.20;1.73;;;15.00;99.90;;;;;;4252811;27;20107;-84
2022/06/11 04:07:49;;;;;;;7.30;1.65;;;15.00;99.90;;;;;;4254285;27;20071;-83
2022/06/11 04:09:49;;;;;;;8.38;1.65;;;15.00;99.90;;;;;;4253418;27;20050;-83
2022/06/11 04:11:50;;;;;;;7.80;2.22;;;15.00;99.90;;;;;;4234865;28;20407;-83
2022/06/11 04:13:53;;;;;;;8.77;1.73;;;15.00;99.90;;;;;;4254178;27;20376;-83
2022/06/11 04:15:58;;;;;;;8.52;2.00;;;15.00;99.90;;;;;;4253959;27;20057;-83
2022/06/11 04:18:00;;;;;;;12.65;1.90;;;15.00;99.90;;;;;;4253745;27;20043;-83
2022/06/11 04:20:02;;;;;;;7.63;2.30;;;15.00;99.90;;;;;;4253043;27;20467;-83
2022/06/11 04:22:04;;;;;;;9.25;2.50;;;15.00;99.90;;;;;;4234889;28;20056;-83
2022/06/11 04:24:07;;;;;;;9.20;2.17;;;15.00;99.90;;;;;;4253086;27;20514;-83
2022/06/11 04:26:11;;;;;;;11.40;2.20;;;15.00;99.90;;;;;;4252858;27;20183;-84
2022/06/11 04:28:13;;;;;;;12.75;2.20;;;15.10;99.90;;;;;;4251901;27;20479;-83
2022/06/11 04:30:16;;;;;;;10.20;1.90;;;15.10;99.90;;;;;;4238677;28;20047;-83
2022/06/11 04:32:17;;;;;;;11.75;2.13;;;15.10;99.90;;;;;;4221404;28;20044;-83
2022/06/11 04:34:19;;;;;;;15.40;2.53;;;15.10;99.90;;;;;;4220146;28;20044;-83
2022/06/11 04:36:23;;;;;;;10.73;1.83;;;15.10;99.90;;;;;;4239708;28;20063;-83
2022/06/11 04:38:24;;;;;;;9.73;2.22;;;15.10;99.90;;;;;;4238520;28;20088;-83
2022/06/11 04:40:25;;;;;;;11.15;2.35;;;15.10;99.90;;;;;;4238143;28;20043;-83
2022/06/11 04:42:31;;;;;;;12.45;1.92;;;15.10;99.90;;;;;;4238234;28;20042;-83
2022/06/11 04:44:32;;;;;;;9.30;1.98;;;15.20;99.90;;;;;;4236604;28;20050;-82
2022/06/11 04:46:34;;;;;;;7.60;1.73;;;15.20;99.90;;;;;;4238198;27;20491;-83
2022/06/11 04:48:35;;;;;;;11.77;2.15;;;15.20;99.90;;;;;;4235954;28;20432;-84
2022/06/11 04:50:36;;;;;;;15.50;2.42;;;15.30;99.90;;;;;;4216939;28;20055;-83
2022/06/11 04:52:36;;;;;;;10.48;1.90;;;15.30;99.90;;;;;;4235106;28;20044;-83
2022/06/11 04:54:38;;;;;;;11.88;2.90;;;15.30;99.90;;;;;;4235538;28;20147;-83
2022/06/11 04:56:40;;;;;;;9.05;1.92;;;15.40;99.90;;;;;;4235264;28;20057;-83
2022/06/11 04:58:41;;;;;;;10.90;2.25;;;15.40;99.90;;;;;;4236189;28;20047;-83
2022/06/11 05:00:41;;;;;;;6.90;1.63;;;15.40;99.90;;;;;;4234894;28;20509;-83
2022/06/11 05:02:43;;;;;;;9.23;1.90;;;15.40;99.90;;;;;;4234615;28;20047;-83
2022/06/11 05:04:44;;;;;;;11.35;2.28;;;15.50;99.90;;;;;;4234061;28;20398;-83
2022/06/11 05:06:46;;;;;;;13.48;1.63;;;15.50;99.90;;;;;;4235774;28;20044;-83
2022/06/11 05:08:47;;;;;;;11.02;1.77;;;15.60;99.90;;;;;;4217234;28;20464;-83
2022/06/11 05:10:48;;;;;;;9.98;1.67;;;15.60;99.90;;;;;;4216607;28;20099;-83
2022/06/11 05:12:49;;;;;;;11.98;2.85;;;15.60;99.90;;;;;;4216277;28;20087;-82
2022/06/11 05:14:50;;;;;;;14.93;2.35;;;15.60;99.90;;;;;;4215748;28;20052;-82
2022/06/11 05:16:52;;;;;;;10.00;2.20;;;15.70;99.90;;;;;;4235262;28;20506;-82
2022/06/11 05:18:53;;;;;;;7.60;1.70;;;15.70;99.90;;;;;;4235618;28;20044;-83
2022/06/11 05:20:54;;;;;;;11.10;2.00;;;15.70;99.90;;;;;;4219828;28;20044;-83
2022/06/11 05:22:55;;;;;;;13.07;3.10;;;15.70;99.90;;;;;;4234144;28;20044;-83
2022/06/11 05:24:55;;;;;;;7.90;1.95;;;15.80;99.90;;;;;;4234781;28;20046;-83
2022/06/11 05:27:00;;;;;;;15.63;2.50;;;15.90;99.90;;;;;;4233782;28;20039;-83
2022/06/11 05:29:01;;;;;;;12.77;3.00;;;15.90;99.90;;;;;;4233550;28;20044;-83
2022/06/11 05:31:02;;;;;;;11.95;3.03;;;15.90;99.90;;;;;;4233486;28;20546;-83
2022/06/11 05:33:03;;;;;;;9.25;2.00;;;16.00;99.90;;;;;;4215820;28;20063;-83
2022/06/11 05:35:07;;;;;;;12.68;1.98;;;16.00;99.90;;;;;;4233871;28;20472;-83
2022/06/11 05:37:09;;;;;;;13.38;3.13;;;16.00;99.90;;;;;;4233699;28;20039;-83
2022/06/11 05:39:10;;;;;;;10.52;2.85;;;16.00;99.90;;;;;;4233853;28;20055;-83
2022/06/11 05:41:11;;;;;;;11.65;1.90;;;16.10;99.90;;;;;;4234059;28;20058;-83
2022/06/11 05:43:13;;;;;;;12.48;2.78;;;16.10;99.90;;;;;;4235178;28;20040;-82
2022/06/11 05:45:16;;;;;;;20.45;3.60;;;16.00;99.90;;;;;;4233025;28;20054;-83
2022/06/11 05:47:23;;;;;;;8.88;2.03;;;16.10;99.90;;;;;;4217051;28;20121;-82
2022/06/11 05:49:31;;;;;;;12.63;2.33;;;16.10;99.90;;;;;;4235471;28;20051;-83
2022/06/11 05:51:39;;;;;;;11.90;2.70;;;16.20;99.90;;;;;;4218454;28;20048;-83
2022/06/11 05:53:41;;;;;;;12.90;3.00;;;16.20;99.90;;;;;;4234369;28;20039;-83
2022/06/11 05:55:44;;;;;;;16.90;3.45;;;16.30;99.90;;;;;;4216209;28;20084;-83
2022/06/11 05:57:47;;;;;;;14.02;2.80;;;16.30;99.90;;;;;;4217796;28;20480;-83
2022/06/11 06:00:08;;;;;;;12.30;3.05;;;16.40;99.90;;;;;;4234643;28;20529;-83
2022/06/11 06:02:11;;;;;;;16.85;3.38;;;16.50;99.90;;;;;;4233809;28;20044;-83
2022/06/11 06:04:12;;;;;;;11.98;3.22;;;16.50;99.90;;;;;;4234465;27;20118;-83
2022/06/11 06:06:13;;;;;;;13.82;2.97;;;16.50;99.90;;;;;;4198262;28;20580;-83
2022/06/11 06:08:14;;;;;;;11.18;2.47;;;16.60;99.90;;;;;;4219327;28;20059;-81
2022/06/11 06:10:17;;;;;;;19.42;4.22;;;16.60;99.90;;;;;;4222423;28;20043;-83
2022/06/11 06:12:18;;;;;;;12.60;2.75;;;16.60;99.90;;;;;;4250666;27;20407;-83
2022/06/11 06:14:19;;;;;;;11.25;2.78;;;16.70;99.90;;;;;;4249926;27;20470;-82
2022/06/11 06:16:23;;;;;;;23.92;3.53;;;16.70;99.90;;;;;;4249633;27;20046;-83
2022/06/11 06:18:23;;;;;;;18.58;2.95;;;16.70;99.90;;;;;;4249962;27;20107;-83
2022/06/11 06:20:24;;;;;;;23.25;2.83;;;16.80;99.90;;;;;;4232515;28;20069;-82
2022/06/11 06:22:25;;;;;;;14.68;3.97;;;16.80;99.90;;;;;;4231467;28;20062;-83
2022/06/11 06:24:26;;;;;;;15.98;3.38;;;16.90;99.90;;;;;;4250949;27;20050;-82
2022/06/11 06:26:26;;;;;;;18.67;2.70;;;16.90;99.90;;;;;;4249790;27;20045;-82
2022/06/11 06:28:27;;;;;;;14.52;3.25;;;16.90;99.90;;;;;;4250656;27;20047;-83
2022/06/11 06:30:28;;;;;;;16.30;2.78;;;16.90;99.90;;;;;;4250465;27;20035;-83
2022/06/11 06:32:29;;;;;;;19.75;3.42;;;17.00;99.90;;;;;;4250370;27;20035;-83
2022/06/11 06:34:30;;;;;;;17.77;3.40;;;17.10;99.90;;;;;;4238697;27;20544;-82
2022/06/11 06:36:32;;;;;;;17.80;3.08;;;17.20;99.90;;;;;;4215115;28;20068;-82
2022/06/11 06:38:35;;;;;;;24.05;4.88;;;17.30;99.90;;;;;;4233690;28;20070;-83
2022/06/11 06:40:36;;;;;;;24.02;4.68;;;17.40;99.90;;;;;;4244059;27;20035;-83
2022/06/11 06:42:37;;;;;;;17.88;3.63;;;17.40;99.90;;;;;;4250874;27;20102;-83
2022/06/11 06:44:38;;;;;;;22.30;4.60;;;17.40;99.90;;;;;;4250495;27;20563;-83
2022/06/11 06:46:39;;;;;;;14.65;3.22;;;17.50;99.90;;;;;;4250591;27;20054;-82
2022/06/11 06:48:43;;;;;;;15.70;4.93;;;17.60;99.90;;;;;;4231761;28;20044;-82
2022/06/11 06:50:44;;;;;;;17.70;3.42;;;17.60;99.90;;;;;;4250274;27;20039;-83
2022/06/11 06:52:44;;;;;;;18.75;2.95;;;17.60;99.90;;;;;;4248794;27;20163;-83
2022/06/11 06:54:46;;;;;;;15.88;2.90;;;17.70;99.90;;;;;;4247989;27;20047;-84
2022/06/11 06:56:47;;;;;;;19.38;3.40;;;17.80;99.90;;;;;;4227599;28;20063;-83
2022/06/11 06:58:47;;;;;;;15.90;3.75;;;17.80;99.90;;;;;;4248075;28;20100;-83
2022/06/11 07:00:48;;;;;;;14.55;2.35;;;17.80;99.90;;;;;;4248589;28;20122;-83
2022/06/11 07:02:49;;;;;;;16.73;3.65;;;17.90;99.90;;;;;;4247608;27;20420;-83
2022/06/11 07:04:50;;;;;;;22.90;3.63;;;17.90;99.90;;;;;;4249016;28;20039;-83
2022/06/11 07:06:57;;;;;;;18.70;3.33;;;17.90;99.90;;;;;;4249548;28;20055;-81
2022/06/11 07:08:58;;;;;;;16.73;2.80;;;18.00;99.90;;;;;;4230950;28;20048;-82
2022/06/11 07:10:59;;;;;;;19.58;4.18;;;18.00;99.90;;;;;;4248426;28;20110;-83
2022/06/11 07:13:01;;;;;;;17.88;2.78;;;18.00;99.90;;;;;;4230700;28;20035;-82
2022/06/11 07:15:02;;;;;;;18.63;4.75;;;18.00;99.90;;;;;;4248287;28;20051;-83
2022/06/11 07:17:08;;;;;;;12.77;2.80;;;18.10;99.90;;;;;;4214408;28;20056;-82
2022/06/11 07:19:17;;;;;;;20.27;3.33;;;18.20;99.90;;;;;;4248360;28;20044;-82
2022/06/11 07:21:21;;;;;;;;;;;18.30;99.90;;;;;;4248781;28;20055;-83
2022/06/11 07:23:33;;;;;;;19.52;2.70;;;18.30;99.90;;;;;;4252268;28;20466;-83
2022/06/11 07:25:34;;;;;;;14.32;2.70;;;18.40;99.90;;;;;;4253438;28;20122;-83
2022/06/11 07:27:39;;;;;;;16.77;3.83;;;18.50;99.90;;;;;;4252423;28;20039;-83
2022/06/11 07:30:01;;;;;;;19.27;3.53;;;18.50;99.90;;;;;;4251654;28;20083;-83
2022/06/11 07:32:08;;;;;;;22.38;4.22;;;18.60;99.90;;;;;;4233333;28;20040;-83
2022/06/11 07:34:11;;;;;;;17.35;3.47;;;18.60;99.90;;;;;;4232346;28;20469;-83
2022/06/11 07:36:12;;;;;;;12.55;2.58;;;18.60;99.90;;;;;;4253118;28;20494;-83
2022/06/11 07:38:14;;;;;;;16.85;3.95;;;18.70;99.90;;;;;;4258738;28;20035;-83
2022/06/11 07:40:18;;;;;;;18.60;3.60;;;18.80;99.90;;;;;;4254010;28;20039;-83
2022/06/11 07:42:18;;;;;;;22.83;4.43;;;19.00;99.90;;;;;;4221474;28;20091;-83
2022/06/11 07:44:19;;;;;;;23.08;3.92;;;19.00;99.90;;;;;;4253234;28;20122;-83
2022/06/11 07:46:20;;;;;;;15.00;2.85;;;19.10;99.90;;;;;;4251103;28;20035;-83
2022/06/11 07:48:20;;;;;;;22.13;3.60;;;19.20;99.90;;;;;;4252263;28;20123;-83
2022/06/11 07:50:33;;;;;;;20.15;3.13;;;19.30;99.90;;;;;;4250280;28;20124;-84
2022/06/11 07:52:34;;;;;;;19.77;3.47;;;19.30;99.60;;;;;;4250197;28;20051;-84
2022/06/11 07:54:36;;;;;;;17.00;3.30;;;19.30;99.50;;;;;;4249037;28;20074;-85
2022/06/11 07:56:38;;;;;;;20.17;3.30;;;19.30;99.30;;;;;;4249126;28;20122;-82
2022/06/11 07:58:39;;;;;;;10.02;3.00;;;19.20;99.30;;;;;;4244038;28;20063;-83
2022/06/11 08:00:49;;;;;;;16.65;2.55;;;19.20;99.30;;;;;;4244599;28;20057;-82
2022/06/11 08:02:49;;;;;;;20.80;2.95;;;19.30;99.20;;;;;;4234126;28;20039;-81
2022/06/11 08:04:51;;;;;;;15.80;2.63;;;19.30;99.20;;;;;;4245994;27;20035;-85
2022/06/11 08:06:52;;;;;;;17.92;3.40;;;19.40;99.10;;;;;;4238947;28;20132;-85
2022/06/11 08:08:53;;;;;;;16.95;2.95;;;19.50;98.90;;;;;;4234070;28;20058;-83
2022/06/11 08:10:54;;;;;;;17.30;2.95;;;19.60;98.70;;;;;;4231970;28;20118;-83
2022/06/11 08:12:55;;;;;;;14.45;2.72;;;19.70;98.30;;;;;;4231543;28;20396;-83
2022/06/11 08:14:58;;;;;;;17.02;2.80;;;19.70;97.70;;;;;;4233671;28;20054;-83
2022/06/11 08:17:00;;;;;;;19.35;3.35;;;19.80;97.50;;;;;;4245220;27;20035;-83
2022/06/11 08:19:00;;;;;;;17.17;2.78;;;19.90;97.00;;;;;;4250981;27;20571;-83
2022/06/11 08:21:01;;;;;;;16.70;3.45;;;20.00;97.20;;;;;;4251084;27;20039;-82
2022/06/11 08:23:03;;;;;;;17.95;3.63;;;20.00;96.80;;;;;;4252064;27;20032;-83
2022/06/11 08:25:04;;;;;;;17.35;2.53;;;20.00;96.50;;;;;;4217597;28;20055;-85
2022/06/11 08:27:05;;;;;;;11.05;2.08;;;20.10;96.40;;;;;;4252454;27;20047;-86
2022/06/11 08:29:05;;;;;;;16.15;2.47;;;20.10;96.40;;;;;;4250367;27;20108;-86
2022/06/11 08:31:06;;;;;;;16.85;3.17;;;20.00;96.20;;;;;;4251522;27;20547;-84
2022/06/11 08:33:07;;;;;;;16.20;2.72;;;20.00;96.20;;;;;;4259023;27;20043;-83
2022/06/11 08:35:09;;;;;;;16.40;2.70;;;20.00;96.30;;;;;;4259900;27;20156;-86
2022/06/11 08:37:10;;;;;;;19.08;3.20;;;20.00;96.30;;;;;;4232306;28;20537;-85
2022/06/11 08:39:11;;;;;;;18.33;3.13;;;20.20;96.30;;;;;;4231758;28;20036;-85
2022/06/11 08:41:19;;;;;;;17.67;2.70;;;20.50;96.30;;;;;;4248638;27;20050;-86
2022/06/11 08:43:32;;;;;;;14.00;3.92;;;20.70;95.50;;;;;;4249470;27;20044;-85
2022/06/11 08:45:53;;;;;;;10.93;2.58;;;20.90;95.30;;;;;;4249960;27;20039;-85
2022/06/11 08:48:01;;;;;;;17.55;3.10;;;21.20;95.10;;;;;;4249707;27;20047;-84
2022/06/11 08:50:03;;;;;;;15.85;3.50;;;21.20;94.00;;;;;;4250095;27;20449;-84
2022/06/11 08:52:18;;;;;;;12.02;2.75;;;21.10;94.30;;;;;;4250205;27;20047;-85
2022/06/11 08:54:31;;;;;;;18.25;4.00;;;21.00;93.60;;;;;;4250712;27;20418;-85
2022/06/11 08:56:45;;;;;;;14.90;2.70;;;20.90;94.10;;;;;;4231715;28;20059;-85
2022/06/11 08:59:09;;;;;;;14.15;2.80;;;21.00;93.70;;;;;;4231580;28;20051;-85
2022/06/11 09:01:18;;;;;;;12.90;2.55;;;21.20;92.70;;;;;;4250048;27;20043;-85
2022/06/11 09:03:25;;;;;;;;;;;21.30;92.80;;;;;;4250675;27;20122;-85
2022/06/11 09:05:53;;;;;;;12.93;2.55;;;21.50;92.50;;;;;;4244853;27;19927;-83
2022/06/11 09:08:03;;;;;;;14.95;3.25;;;21.50;91.70;;;;;;4233555;28;20053;-83
2022/06/11 09:10:13;;;;;;;17.20;3.85;;;21.50;92.70;;;;;;4234012;28;20044;-84
2022/06/11 09:12:26;;;;;;;11.77;2.40;;;21.50;92.30;;;;;;4214812;28;20114;-84
2022/06/11 09:14:40;;;;;;;13.00;2.45;;;21.60;92.70;;;;;;4215199;28;20067;-83
2022/06/11 09:16:59;;;;;;;13.27;2.50;;;21.90;91.60;;;;;;4233554;28;20055;-83
2022/06/11 09:19:09;;;;;;;9.07;2.28;;;22.00;89.40;;;;;;4232435;28;20040;-83
2022/06/11 09:21:34;;;;;;;13.75;1.80;;;21.90;88.50;;;;;;4231497;28;20052;-82
2022/06/11 09:23:54;;;;;;;11.20;2.15;;;21.80;90.10;;;;;;4233288;28;20047;-83
2022/06/11 09:26:10;;;;;;;8.70;2.05;;;21.90;90.30;;;;;;4235059;28;20044;-83
2022/06/11 09:28:26;;;;;;;16.25;3.08;;;22.20;90.30;;;;;;4235652;28;20044;-83
2022/06/11 09:30:40;;;;;;;12.13;3.55;;;22.50;86.60;;;;;;4235221;28;20051;-84
2022/06/11 09:33:09;;;;;;;12.90;1.98;;;22.70;85.80;;;;;;4232682;28;20125;-83
2022/06/11 09:35:13;;;;;;;10.82;2.00;;;22.50;77.60;;;;;;4234158;28;20081;-83
2022/06/11 09:37:21;;;;;;;8.75;2.22;;;22.40;82.70;;;;;;4234297;28;20506;-84
2022/06/11 09:39:42;;;;;;;10.25;2.20;;;22.40;79.90;;;;;;4233992;28;20054;-83
2022/06/11 09:41:46;;;;;;;12.13;1.52;;;22.10;76.10;;;;;;4233358;28;20044;-83
2022/06/11 09:44:28;;;;;;;19.90;2.88;;;22.10;81.00;;;;;;4232838;28;20079;-83
2022/06/11 09:46:51;;;;;;;11.05;2.40;;;22.30;80.50;;;;;;4232877;28;20156;-83
2022/06/11 09:49:18;;;;;;;9.43;2.05;;;22.60;80.80;;;;;;4232615;28;20122;-84
2022/06/11 09:51:52;;;;;;;12.35;2.60;;;22.80;79.50;;;;;;4228610;28;20052;-83
2022/06/11 09:54:02;;;;;;;11.93;1.85;;;22.90;78.90;;;;;;4147314;28;20092;-83
2022/06/11 09:56:18;;;;;;;13.52;1.90;;;23.00;79.40;;;;;;4231974;28;20407;-83
2022/06/11 09:58:38;;;;;;;10.35;2.30;;;23.30;78.00;;;;;;4232166;28;20073;-83
2022/06/11 10:00:46;;;;;;;10.57;1.90;;;23.50;78.10;;;;;;4233248;28;20047;-83
2022/06/11 10:05:51;;;;;;;12.40;1.98;;;23.80;75.00;;;;;;4231817;28;20074;-83
2022/06/11 10:08:17;;;;;;;7.78;2.00;;;24.00;70.80;;;;;;4231628;28;20053;-83
2022/06/11 10:10:31;;;;;;;13.90;2.45;;;24.00;71.80;;;;;;4230595;28;20047;-83
2022/06/11 10:12:41;;;;;;;9.73;1.60;;;23.70;71.20;;;;;;4231139;28;20139;-83
2022/06/11 10:15:13;;;;;;;11.07;1.48;;;23.40;69.70;;;;;;4235482;27;20402;-83
2022/06/11 10:17:48;;;;;;;14.95;2.38;;;23.40;69.10;;;;;;4236769;27;20106;-85
2022/06/11 10:20:10;;;;;;;6.20;1.50;;;23.50;68.90;;;;;;4248994;27;20039;-85
2022/06/11 10:22:26;;;;;;;17.00;1.83;;;23.50;71.40;;;;;;4230558;28;20059;-85
2022/06/11 10:24:30;;;;;;;13.88;3.05;;;23.30;69.10;;;;;;4248372;27;20456;-86
2022/06/11 10:26:38;;;;;;;9.10;1.70;;;23.30;70.00;;;;;;4247179;27;20039;-85
2022/06/11 10:28:55;;;;;;;;;;;23.30;68.20;;;;;;4231201;28;20059;-85
2022/06/11 10:31:09;;;;;;;;;;;23.30;63.90;;;;;;4248957;27;19978;-85
2022/06/11 10:33:17;;;;;;;;;;;23.20;64.50;;;;;;4249469;27;20280;-86
2022/06/11 10:35:21;;;;;;;;;;;23.30;64.60;;;;;;4232599;28;20002;-86
2022/06/11 10:37:32;;;;;;;;;;;23.40;66.30;;;;;;4232107;28;19927;-84
2022/06/11 10:39:32;;;;;;;;;;;23.70;61.90;;;;;;4232196;28;19919;-84
2022/06/11 10:41:52;;;;;;;;;;;23.80;60.60;;;;;;4232146;28;19921;-85
2022/06/11 10:44:13;;;;;;;;;;;23.90;63.20;;;;;;4239459;28;19920;-81
2022/06/11 10:46:14;;;;;;;;;;;24.20;62.70;;;;;;4228145;28;19920;-82
2022/06/11 10:48:16;;;;;;;;;;;24.40;61.40;;;;;;4231633;28;19920;-82
2022/06/11 10:50:36;;;;;;;;;;;24.30;58.50;;;;;;4232535;28;20405;-82
2022/06/11 10:52:40;;;;;;;;;;;24.00;59.10;;;;;;4231411;28;19920;-81
2022/06/11 10:54:40;;;;;;;;;;;24.20;61.50;;;;;;4232197;28;19919;-81
2022/06/11 10:56:47;;;;;;;;;;;24.20;61.80;;;;;;4231038;28;19926;-81
2022/06/11 10:58:56;;;;;;;;;;;24.10;59.00;;;;;;4213595;28;19920;-81
2022/06/11 11:01:06;;;;;;;;;;;24.20;62.10;;;;;;4231406;28;20299;-81